createdAt,value
2023-04-14T00:00:00.975Z,7
2023-04-14T00:01:01.538Z,6.8
2023-04-14T00:02:01.201Z,6.8
2023-04-14T00:03:01.959Z,7
2023-04-14T00:04:00.972Z,6.9
2023-04-14T00:05:01.712Z,6.9
2023-04-14T00:06:01.338Z,6.8
2023-04-14T00:07:00.896Z,6.8
2023-04-14T00:08:01.491Z,6.8
2023-04-14T00:09:01.355Z,6.7
2023-04-14T00:10:01.731Z,6.6
2023-04-14T00:11:01.348Z,6.6
2023-04-14T00:12:00.916Z,6.5
2023-04-14T00:13:01.509Z,6.5
2023-04-14T00:14:01.109Z,6.5
2023-04-14T00:15:01.686Z,6.4
2023-04-14T00:16:01.298Z,6.3
2023-04-14T00:17:00.883Z,6.3
2023-04-14T00:18:01.473Z,6.3
2023-04-14T00:19:01.476Z,6.2
2023-04-14T00:20:01.298Z,6.2
2023-04-14T00:21:00.925Z,6.2
2023-04-14T00:22:01.524Z,6.1
2023-04-14T00:23:01.117Z,6
2023-04-14T00:24:01.700Z,6
2023-04-14T00:25:01.294Z,5.9
2023-04-14T00:26:00.916Z,5.9
2023-04-14T00:27:01.485Z,5.8
2023-04-14T00:28:01.086Z,5.8
2023-04-14T00:29:01.873Z,5.8
2023-04-14T00:30:01.319Z,5.8
2023-04-14T00:31:00.995Z,5.8
2023-04-14T00:32:01.522Z,5.7
2023-04-14T00:33:01.217Z,5.7
2023-04-14T00:34:01.755Z,5.6
2023-04-14T00:35:01.425Z,5.5
2023-04-14T00:36:00.958Z,5.5
2023-04-14T00:37:01.559Z,5.4
2023-04-14T00:38:01.239Z,5.5
2023-04-14T00:39:02.123Z,5.5
2023-04-14T00:40:00.893Z,5.4
2023-04-14T00:41:01.488Z,5.5
2023-04-14T00:42:01.094Z,5.5
2023-04-14T00:43:01.706Z,5.6
2023-04-14T00:44:00.798Z,5.5
2023-04-14T00:45:01.376Z,5.5
2023-04-14T00:46:01.056Z,5.5
2023-04-14T00:47:01.565Z,5.5
2023-04-14T00:48:01.213Z,5.5
2023-04-14T00:49:01.956Z,5.5
2023-04-14T00:50:00.824Z,5.5
2023-04-14T00:51:01.413Z,5.5
2023-04-14T00:52:01.560Z,5.5
2023-04-14T00:53:01.150Z,5.5
2023-04-14T00:54:01.760Z,5.5
2023-04-14T00:55:01.371Z,5.5
2023-04-14T00:56:00.944Z,5.4
2023-04-14T00:57:01.519Z,5.4
2023-04-14T00:58:01.109Z,5.4
2023-04-14T00:59:01.914Z,5.4
2023-04-14T01:00:01.443Z,5.5
2023-04-14T01:01:00.921Z,5.5
2023-04-14T01:02:01.536Z,5.5
2023-04-14T01:03:01.224Z,5.5
2023-04-14T01:04:01.770Z,5.4
2023-04-14T01:05:01.552Z,5.4
2023-04-14T01:06:00.949Z,5.4
2023-04-14T01:07:01.518Z,5.3
2023-04-14T01:08:01.113Z,5.3
2023-04-14T01:09:01.879Z,5.3
2023-04-14T01:10:01.391Z,5.3
2023-04-14T01:11:00.925Z,5.3
2023-04-14T01:12:01.492Z,5.3
2023-04-14T01:13:01.090Z,5.3
2023-04-14T01:14:01.656Z,5.4
2023-04-14T01:15:01.266Z,5.5
2023-04-14T01:16:00.834Z,5.5
2023-04-14T01:17:01.406Z,5.5
2023-04-14T01:18:01.056Z,5.6
2023-04-14T01:19:01.869Z,5.6
2023-04-14T01:20:01.254Z,5.5
2023-04-14T01:21:00.834Z,5.5
2023-04-14T01:22:01.404Z,5.5
2023-04-14T01:23:01.028Z,5.5
2023-04-14T01:24:01.600Z,5.4
2023-04-14T01:25:01.207Z,5.3
2023-04-14T01:26:01.802Z,5.4
2023-04-14T01:27:01.482Z,5.3
2023-04-14T01:28:01.016Z,5.3
2023-04-14T01:29:01.744Z,5.3
2023-04-14T01:30:01.323Z,5.3
2023-04-14T01:31:00.830Z,5.3
2023-04-14T01:32:01.440Z,5.3
2023-04-14T01:33:01.134Z,5.3
2023-04-14T01:34:01.655Z,5.3
2023-04-14T01:35:01.273Z,5.4
2023-04-14T01:36:00.828Z,5.3
2023-04-14T01:37:01.429Z,5.3
2023-04-14T01:38:01.020Z,5.3
2023-04-14T01:39:01.756Z,5.3
2023-04-14T01:40:01.253Z,5.4
2023-04-14T01:41:00.827Z,5.3
2023-04-14T01:42:01.462Z,5.3
2023-04-14T01:43:01.065Z,5.3
2023-04-14T01:44:01.636Z,5.2
2023-04-14T01:45:01.291Z,5
2023-04-14T01:46:00.909Z,4.9
2023-04-14T01:47:01.532Z,5
2023-04-14T01:48:01.194Z,5.1
2023-04-14T01:49:01.957Z,5.1
2023-04-14T01:50:01.827Z,5.1
2023-04-14T01:51:01.513Z,5.1
2023-04-14T01:52:01.113Z,5.1
2023-04-14T01:53:01.775Z,5.1
2023-04-14T01:54:01.354Z,5.1
2023-04-14T01:55:00.930Z,5.1
2023-04-14T01:56:01.546Z,5.2
2023-04-14T01:57:01.165Z,5.2
2023-04-14T01:58:01.788Z,5.2
2023-04-14T01:59:01.631Z,5.3
2023-04-14T02:00:00.980Z,5.4
2023-04-14T02:01:01.614Z,5.4
2023-04-14T02:02:01.261Z,5.3
2023-04-14T02:03:00.846Z,5.4
2023-04-14T02:04:01.426Z,5.4
2023-04-14T02:05:01.030Z,5.4
2023-04-14T02:06:01.609Z,5.5
2023-04-14T02:07:01.204Z,5.4
2023-04-14T02:08:01.823Z,5.4
2023-04-14T02:09:01.642Z,5.4
2023-04-14T02:10:01.027Z,5.4
2023-04-14T02:11:01.614Z,5.4
2023-04-14T02:12:01.218Z,5.4
2023-04-14T02:13:01.785Z,5.4
2023-04-14T02:14:01.426Z,5.4
2023-04-14T02:15:01.035Z,5.4
2023-04-14T02:16:01.603Z,5.4
2023-04-14T02:17:01.221Z,5.4
2023-04-14T02:18:01.826Z,5.4
2023-04-14T02:19:01.658Z,5.5
2023-04-14T02:20:01.030Z,5.4
2023-04-14T02:21:01.612Z,5.5
2023-04-14T02:22:01.207Z,5.5
2023-04-14T02:23:01.803Z,5.4
2023-04-14T02:24:01.464Z,5.5
2023-04-14T02:25:00.999Z,5.4
2023-04-14T02:26:01.585Z,5.3
2023-04-14T02:27:01.202Z,5.3
2023-04-14T02:28:01.842Z,5.3
2023-04-14T02:29:01.598Z,5.3
2023-04-14T02:30:01.033Z,5.3
2023-04-14T02:31:01.665Z,5.2
2023-04-14T02:32:01.296Z,5.2
2023-04-14T02:33:00.862Z,5.2
2023-04-14T02:34:01.411Z,5.2
2023-04-14T02:35:01.025Z,5.2
2023-04-14T02:36:01.590Z,5.2
2023-04-14T02:37:01.227Z,5.1
2023-04-14T02:38:00.808Z,5
2023-04-14T02:39:01.539Z,5
2023-04-14T02:40:01.078Z,5
2023-04-14T02:41:01.639Z,4.9
2023-04-14T02:42:01.237Z,4.9
2023-04-14T02:43:00.819Z,4.8
2023-04-14T02:44:01.389Z,4.8
2023-04-14T02:45:01.003Z,4.7
2023-04-14T02:46:01.619Z,4.8
2023-04-14T02:47:01.264Z,4.8
2023-04-14T02:48:00.809Z,4.8
2023-04-14T02:49:01.650Z,4.8
2023-04-14T02:50:01.046Z,4.8
2023-04-14T02:51:01.612Z,4.8
2023-04-14T02:52:01.200Z,4.7
2023-04-14T02:53:01.777Z,4.7
2023-04-14T02:54:01.365Z,4.7
2023-04-14T02:55:00.977Z,4.7
2023-04-14T02:56:01.561Z,4.8
2023-04-14T02:57:01.175Z,4.7
2023-04-14T02:58:01.756Z,4.7
2023-04-14T02:59:01.537Z,4.7
2023-04-14T03:00:01.001Z,4.6
2023-04-14T03:01:01.554Z,4.6
2023-04-14T03:02:01.409Z,4.6
2023-04-14T03:03:01.796Z,4.5
2023-04-14T03:04:01.453Z,4.5
2023-04-14T03:05:01.395Z,4.5
2023-04-14T03:06:01.545Z,4.5
2023-04-14T03:07:01.133Z,4.5
2023-04-14T03:08:01.740Z,4.5
2023-04-14T03:09:01.560Z,4.5
2023-04-14T03:10:00.995Z,4.5
2023-04-14T03:11:01.551Z,4.5
2023-04-14T03:12:01.176Z,4.5
2023-04-14T03:13:01.728Z,4.5
2023-04-14T03:14:01.321Z,4.4
2023-04-14T03:15:00.913Z,4.3
2023-04-14T03:16:01.526Z,4.3
2023-04-14T03:17:01.177Z,4.3
2023-04-14T03:18:01.812Z,4.3
2023-04-14T03:19:01.605Z,4.3
2023-04-14T03:20:00.964Z,4.2
2023-04-14T03:21:01.534Z,4.3
2023-04-14T03:22:01.140Z,4.3
2023-04-14T03:23:01.746Z,4.3
2023-04-14T03:24:01.363Z,4.3
2023-04-14T03:25:00.935Z,4.3
2023-04-14T03:26:01.512Z,4.3
2023-04-14T03:27:01.127Z,4.4
2023-04-14T03:28:01.689Z,4.4
2023-04-14T03:29:01.443Z,4.5
2023-04-14T03:30:00.868Z,4.5
2023-04-14T03:31:01.553Z,4.6
2023-04-14T03:32:01.123Z,4.6
2023-04-14T03:33:01.688Z,4.6
2023-04-14T03:34:01.355Z,4.6
2023-04-14T03:35:00.917Z,4.6
2023-04-14T03:36:01.582Z,4.6
2023-04-14T03:37:01.171Z,4.6
2023-04-14T03:38:01.722Z,4.6
2023-04-14T03:39:01.670Z,4.6
2023-04-14T03:40:01.709Z,4.6
2023-04-14T03:41:01.334Z,4.5
2023-04-14T03:42:00.963Z,4.5
2023-04-14T03:43:01.532Z,4.4
2023-04-14T03:44:01.138Z,4.5
2023-04-14T03:45:01.786Z,4.4
2023-04-14T03:46:01.415Z,4.4
2023-04-14T03:47:01.596Z,4.4
2023-04-14T03:48:01.660Z,4.5
2023-04-14T03:49:01.324Z,4.4
2023-04-14T03:50:01.827Z,4.5
2023-04-14T03:51:01.456Z,4.4
2023-04-14T03:52:01.003Z,4.4
2023-04-14T03:53:01.566Z,4.4
2023-04-14T03:54:01.191Z,4.4
2023-04-14T03:55:01.784Z,4.4
2023-04-14T03:56:01.508Z,4.4
2023-04-14T03:57:00.972Z,4.3
2023-04-14T03:58:01.590Z,4.4
2023-04-14T03:59:01.349Z,4.4
2023-04-14T04:00:01.756Z,4.3
2023-04-14T04:01:01.346Z,4.3
2023-04-14T04:02:01.054Z,4.3
2023-04-14T04:03:01.668Z,4.3
2023-04-14T04:04:01.255Z,4.4
2023-04-14T04:05:01.848Z,4.4
2023-04-14T04:06:01.546Z,4.4
2023-04-14T04:07:00.993Z,4.4
2023-04-14T04:08:01.654Z,4.5
2023-04-14T04:09:01.473Z,4.5
2023-04-14T04:10:00.808Z,4.5
2023-04-14T04:11:01.385Z,4.5
2023-04-14T04:12:00.972Z,4.6
2023-04-14T04:13:01.629Z,4.6
2023-04-14T04:14:01.240Z,4.7
2023-04-14T04:15:00.812Z,4.7
2023-04-14T04:16:01.399Z,4.8
2023-04-14T04:17:01.007Z,4.8
2023-04-14T04:18:01.638Z,4.9
2023-04-14T04:19:01.456Z,4.9
2023-04-14T04:20:00.820Z,5
2023-04-14T04:21:01.413Z,5
2023-04-14T04:22:01.035Z,4.9
2023-04-14T04:23:01.684Z,4.9
2023-04-14T04:24:01.231Z,4.9
2023-04-14T04:25:00.806Z,4.8
2023-04-14T04:26:01.385Z,4.7
2023-04-14T04:27:00.999Z,4.7
2023-04-14T04:28:01.564Z,4.7
2023-04-14T04:29:01.387Z,4.6
2023-04-14T04:30:01.780Z,4.6
2023-04-14T04:31:01.375Z,4.6
2023-04-14T04:32:00.984Z,4.7
2023-04-14T04:33:01.647Z,4.7
2023-04-14T04:34:01.218Z,4.7
2023-04-14T04:35:00.806Z,4.7
2023-04-14T04:36:01.370Z,4.7
2023-04-14T04:37:00.961Z,4.7
2023-04-14T04:38:01.584Z,4.8
2023-04-14T04:39:01.315Z,4.9
2023-04-14T04:40:01.887Z,4.9
2023-04-14T04:41:01.533Z,5
2023-04-14T04:42:01.002Z,5.1
2023-04-14T04:43:01.602Z,5.1
2023-04-14T04:44:01.189Z,5.1
2023-04-14T04:45:01.813Z,5.1
2023-04-14T04:46:01.516Z,5.1
2023-04-14T04:47:01.012Z,5.2
2023-04-14T04:48:01.631Z,5.1
2023-04-14T04:49:01.370Z,5.1
2023-04-14T04:50:00.842Z,5.1
2023-04-14T04:51:01.471Z,5.2
2023-04-14T04:52:01.038Z,5.2
2023-04-14T04:53:01.651Z,5.2
2023-04-14T04:54:01.313Z,5.3
2023-04-14T04:55:00.839Z,5.3
2023-04-14T04:56:01.471Z,5.3
2023-04-14T04:57:01.071Z,5.3
2023-04-14T04:58:01.655Z,5.3
2023-04-14T04:59:01.525Z,5.3
2023-04-14T05:00:01.380Z,5.3
2023-04-14T05:01:01.006Z,5.3
2023-04-14T05:02:01.729Z,5.4
2023-04-14T05:03:01.432Z,5.4
2023-04-14T05:04:00.920Z,5.5
2023-04-14T05:05:01.516Z,5.5
2023-04-14T05:06:01.112Z,5.5
2023-04-14T05:07:01.703Z,5.6
2023-04-14T05:08:01.293Z,5.7
2023-04-14T05:09:01.000Z,5.7
2023-04-14T05:10:01.505Z,5.8
2023-04-14T05:11:01.105Z,5.8
2023-04-14T05:12:01.690Z,5.9
2023-04-14T05:13:01.283Z,5.9
2023-04-14T05:14:00.886Z,5.9
2023-04-14T05:15:01.468Z,6
2023-04-14T05:16:01.097Z,6
2023-04-14T05:17:01.675Z,5.9
2023-04-14T05:18:01.291Z,6
2023-04-14T05:19:01.023Z,6
2023-04-14T05:20:01.412Z,6.1
2023-04-14T05:21:00.999Z,6.2
2023-04-14T05:22:01.607Z,6.4
2023-04-14T05:23:01.205Z,6.4
2023-04-14T05:24:00.793Z,6.3
2023-04-14T05:25:01.388Z,6.2
2023-04-14T05:26:14.608Z,6.2
2023-04-14T05:27:13.484Z,6.2
2023-04-14T05:28:01.095Z,6.3
2023-04-14T05:29:01.875Z,6.3
2023-04-14T05:30:01.347Z,6.4
2023-04-14T05:31:01.412Z,6.6
2023-04-14T05:32:01.093Z,6.7
2023-04-14T05:33:01.759Z,6.7
2023-04-14T05:34:01.593Z,6.8
2023-04-14T05:35:00.931Z,6.8
2023-04-14T05:36:01.510Z,7
2023-04-14T05:37:01.121Z,7
2023-04-14T05:38:01.715Z,7
2023-04-14T05:39:01.361Z,7.1
2023-04-14T05:40:00.947Z,7.2
2023-04-14T05:41:01.506Z,7.3
2023-04-14T05:42:01.136Z,7.4
2023-04-14T05:43:01.682Z,7.4
2023-04-14T05:44:01.578Z,7.4
2023-04-14T05:45:01.424Z,7.4
2023-04-14T05:46:01.015Z,7.5
2023-04-14T05:47:01.700Z,7.5
2023-04-14T05:48:01.273Z,7.5
2023-04-14T05:49:01.085Z,7.6
2023-04-14T05:50:00.966Z,7.6
2023-04-14T05:51:01.571Z,7.7
2023-04-14T05:52:01.198Z,7.8
2023-04-14T05:53:01.759Z,7.8
2023-04-14T05:54:01.607Z,7.8
2023-04-14T05:55:00.999Z,7.7
2023-04-14T05:56:01.595Z,7.6
2023-04-14T05:57:01.234Z,7.7
2023-04-14T05:58:01.812Z,7.6
2023-04-14T05:59:01.414Z,7.6
2023-04-14T06:00:01.016Z,7.7
2023-04-14T06:01:01.641Z,7.7
2023-04-14T06:02:01.379Z,7.8
2023-04-14T06:03:01.048Z,7.8
2023-04-14T06:04:02.209Z,7.8
2023-04-14T06:05:01.182Z,7.9
2023-04-14T06:06:01.680Z,7.9
2023-04-14T06:07:01.267Z,7.8
2023-04-14T06:08:00.855Z,7.9
2023-04-14T06:09:01.745Z,8
2023-04-14T06:10:01.079Z,8
2023-04-14T06:11:01.685Z,8
2023-04-14T06:12:01.303Z,7.9
2023-04-14T06:13:00.851Z,7.9
2023-04-14T06:14:01.572Z,8
2023-04-14T06:15:01.089Z,7.8
2023-04-14T06:16:01.747Z,7.9
2023-04-14T06:17:01.339Z,8
2023-04-14T06:18:00.943Z,8
2023-04-14T06:19:01.652Z,8
2023-04-14T06:20:01.136Z,8.1
2023-04-14T06:21:01.718Z,8.1
2023-04-14T06:22:01.339Z,8.1
2023-04-14T06:23:00.948Z,8.1
2023-04-14T06:24:01.549Z,8.2
2023-04-14T06:25:01.185Z,8.3
2023-04-14T06:26:01.747Z,8.4
2023-04-14T06:27:01.404Z,8.4
2023-04-14T06:28:00.988Z,8.4
2023-04-14T06:29:01.796Z,8.4
2023-04-14T06:30:01.252Z,8.4
2023-04-14T06:31:00.816Z,8.4
2023-04-14T06:32:01.428Z,8.6
2023-04-14T06:33:01.078Z,8.6
2023-04-14T06:34:01.678Z,8.5
2023-04-14T06:35:01.284Z,8.4
2023-04-14T06:36:00.860Z,8.3
2023-04-14T06:37:01.468Z,8.2
2023-04-14T06:38:01.083Z,8.2
2023-04-14T06:39:01.830Z,8.2
2023-04-14T06:40:01.307Z,8.2
2023-04-14T06:41:00.876Z,8.3
2023-04-14T06:42:01.460Z,8.3
2023-04-14T06:43:01.121Z,8.4
2023-04-14T06:44:01.679Z,8.4
2023-04-14T06:45:01.283Z,8.3
2023-04-14T06:46:00.896Z,8.3
2023-04-14T06:47:01.450Z,8.4
2023-04-14T06:48:01.102Z,8.4
2023-04-14T06:49:01.753Z,8.4
2023-04-14T06:50:01.350Z,8.4
2023-04-14T06:51:00.887Z,8.5
2023-04-14T06:52:01.480Z,8.7
2023-04-14T06:53:01.071Z,8.7
2023-04-14T06:54:01.884Z,8.7
2023-04-14T06:55:01.323Z,8.7
2023-04-14T06:56:00.897Z,8.6
2023-04-14T06:57:01.557Z,8.6
2023-04-14T06:58:01.144Z,8.5
2023-04-14T06:59:01.722Z,8.5
2023-04-14T07:00:01.312Z,8.6
2023-04-14T07:01:00.917Z,8.6
2023-04-14T07:02:01.601Z,8.6
2023-04-14T07:03:01.233Z,8.7
2023-04-14T07:04:02.736Z,8.7
2023-04-14T07:05:01.293Z,8.8
2023-04-14T07:06:00.916Z,8.8
2023-04-14T07:07:01.507Z,8.8
2023-04-14T07:08:01.123Z,8.9
2023-04-14T07:09:01.728Z,8.9
2023-04-14T07:10:01.409Z,9
2023-04-14T07:11:00.942Z,9
2023-04-14T07:12:01.513Z,9
2023-04-14T07:13:01.108Z,9
2023-04-14T07:14:01.961Z,9
2023-04-14T07:15:01.336Z,9
2023-04-14T07:16:00.969Z,9.2
2023-04-14T07:17:01.509Z,9.2
2023-04-14T07:18:01.191Z,9
2023-04-14T07:19:01.746Z,9
2023-04-14T07:20:01.362Z,9
2023-04-14T07:21:00.979Z,9
2023-04-14T07:22:01.521Z,9.2
2023-04-14T07:23:01.110Z,9.3
2023-04-14T07:24:01.976Z,9.3
2023-04-14T07:25:01.381Z,9.2
2023-04-14T07:26:00.964Z,9.3
2023-04-14T07:27:01.519Z,9.3
2023-04-14T07:28:03.426Z,9.3
2023-04-14T07:29:01.661Z,9.3
2023-04-14T07:30:01.274Z,9.4
2023-04-14T07:31:00.866Z,9.3
2023-04-14T07:32:01.416Z,9.3
2023-04-14T07:33:01.046Z,9.4
2023-04-14T07:34:01.913Z,9.6
2023-04-14T07:35:01.242Z,9.7
2023-04-14T07:36:02.605Z,9.6
2023-04-14T07:37:01.396Z,9.7
2023-04-14T07:38:00.997Z,9.8
2023-04-14T07:39:01.578Z,9.8
2023-04-14T07:40:01.182Z,9.8
2023-04-14T07:41:01.798Z,9.6
2023-04-14T07:42:01.387Z,9.5
2023-04-14T07:43:00.977Z,9.6
2023-04-14T07:44:01.714Z,9.7
2023-04-14T07:45:01.211Z,9.8
2023-04-14T07:46:00.877Z,9.7
2023-04-14T07:47:01.401Z,9.8
2023-04-14T07:48:01.058Z,9.8
2023-04-14T07:49:01.587Z,9.7
2023-04-14T07:50:01.249Z,9.8
2023-04-14T07:51:00.842Z,9.9
2023-04-14T07:52:01.424Z,9.9
2023-04-14T07:53:01.042Z,9.9
2023-04-14T07:54:01.866Z,10
2023-04-14T07:55:01.280Z,10.2
2023-04-14T07:56:00.853Z,10.2
2023-04-14T07:57:01.445Z,10.4
2023-04-14T07:58:01.088Z,10.2
2023-04-14T07:59:01.987Z,10.2
2023-04-14T08:00:00.889Z,10.1
2023-04-14T08:01:01.475Z,10
2023-04-14T08:02:01.120Z,10
2023-04-14T08:03:01.765Z,10.2
2023-04-14T08:04:01.523Z,10.2
2023-04-14T08:05:00.925Z,10.2
2023-04-14T08:06:01.506Z,10.3
2023-04-14T08:07:01.096Z,10.3
2023-04-14T08:08:01.683Z,10.4
2023-04-14T08:09:01.512Z,10.4
2023-04-14T08:10:00.856Z,10.5
2023-04-14T08:11:01.448Z,10.4
2023-04-14T08:12:01.045Z,10.4
2023-04-14T08:13:03.627Z,10.5
2023-04-14T08:14:01.206Z,10.6
2023-04-14T08:15:00.803Z,10.7
2023-04-14T08:16:01.451Z,10.8
2023-04-14T08:17:01.042Z,10.8
2023-04-14T08:18:01.658Z,10.8
2023-04-14T08:19:01.530Z,10.7
2023-04-14T08:20:00.856Z,10.7
2023-04-14T08:21:01.437Z,10.7
2023-04-14T08:22:01.058Z,10.8
2023-04-14T08:23:01.628Z,10.9
2023-04-14T08:24:01.241Z,10.9
2023-04-14T08:25:00.810Z,10.9
2023-04-14T08:26:01.390Z,11
2023-04-14T08:27:00.985Z,11
2023-04-14T08:28:01.576Z,11.1
2023-04-14T08:29:01.384Z,11
2023-04-14T08:30:01.784Z,10.9
2023-04-14T08:31:01.375Z,10.9
2023-04-14T08:32:00.975Z,11.1
2023-04-14T08:33:01.601Z,11.1
2023-04-14T08:34:01.213Z,11.3
2023-04-14T08:35:36.506Z,11.4
2023-04-14T08:36:01.364Z,11.3
2023-04-14T08:37:00.957Z,11.3
2023-04-14T08:38:01.598Z,11.2
2023-04-14T08:39:01.390Z,11.2
2023-04-14T08:40:00.815Z,11.2
2023-04-14T08:41:01.427Z,11.2
2023-04-14T08:42:01.026Z,11.3
2023-04-14T08:43:01.607Z,11.2
2023-04-14T08:44:01.200Z,11.2
2023-04-14T08:45:00.807Z,11.1
2023-04-14T08:46:01.406Z,11.5
2023-04-14T08:47:01.050Z,11.5
2023-04-14T08:48:01.664Z,11.4
2023-04-14T08:49:01.395Z,11.5
2023-04-14T08:50:00.863Z,11.6
2023-04-14T08:51:01.511Z,11.7
2023-04-14T08:52:01.099Z,11.5
2023-04-14T08:53:01.682Z,11.6
2023-04-14T08:54:01.712Z,11.7
2023-04-14T08:55:01.615Z,11.8
2023-04-14T08:56:01.230Z,12
2023-04-14T08:57:00.831Z,12
2023-04-14T08:58:01.413Z,11.9
2023-04-14T08:59:01.006Z,11.8
2023-04-14T09:00:01.623Z,11.9
2023-04-14T09:01:01.227Z,11.9
2023-04-14T09:02:00.852Z,12.1
2023-04-14T09:03:01.607Z,12.3
2023-04-14T09:04:01.677Z,12.1
2023-04-14T09:05:01.732Z,11.9
2023-04-14T09:06:01.275Z,12.1
2023-04-14T09:07:00.858Z,12
2023-04-14T09:08:01.444Z,12.2
2023-04-14T09:09:01.049Z,12.3
2023-04-14T09:10:01.676Z,12.2
2023-04-14T09:11:01.289Z,12.3
2023-04-14T09:12:00.841Z,12.3
2023-04-14T09:13:01.450Z,12.3
2023-04-14T09:14:01.410Z,12.2
2023-04-14T09:15:01.202Z,12.2
2023-04-14T09:16:00.808Z,12.1
2023-04-14T09:17:01.461Z,12.1
2023-04-14T09:18:01.132Z,12.1
2023-04-14T09:19:02.130Z,12.2
2023-04-14T09:20:34.171Z,12.3
2023-04-14T09:21:29.478Z,12.4
2023-04-14T09:22:01.279Z,12.4
2023-04-14T09:23:00.888Z,12.4
2023-04-14T09:24:01.624Z,12.1
2023-04-14T09:25:01.133Z,12
2023-04-14T09:26:01.729Z,11.9
2023-04-14T09:27:01.322Z,12.1
2023-04-14T09:28:00.930Z,12.1
2023-04-14T09:29:01.638Z,12.2
2023-04-14T09:30:01.176Z,12.5
2023-04-14T09:31:01.767Z,12.5
2023-04-14T09:32:01.410Z,12.5
2023-04-14T09:33:01.050Z,12.3
2023-04-14T09:34:01.839Z,12.3
2023-04-14T09:35:01.244Z,12.4
2023-04-14T09:36:00.807Z,12.3
2023-04-14T09:37:01.398Z,12.2
2023-04-14T09:38:00.985Z,12.2
2023-04-14T09:39:01.583Z,12.3
2023-04-14T09:40:01.197Z,12.5
2023-04-14T09:41:01.738Z,12.6
2023-04-14T09:42:01.398Z,12.6
2023-04-14T09:43:01.021Z,12.7
2023-04-14T09:44:01.667Z,12.7
2023-04-14T09:45:01.266Z,12.7
2023-04-14T09:46:00.831Z,13
2023-04-14T09:47:01.403Z,12.7
2023-04-14T09:48:01.031Z,12.6
2023-04-14T09:49:01.605Z,12.6
2023-04-14T09:50:01.237Z,12.7
2023-04-14T09:51:01.848Z,12.7
2023-04-14T09:52:01.545Z,12.9
2023-04-14T09:53:01.035Z,13.1
2023-04-14T09:54:01.880Z,13.1
2023-04-14T09:55:01.279Z,13.1
2023-04-14T09:56:00.891Z,13
2023-04-14T09:57:01.474Z,13.3
2023-04-14T09:58:01.132Z,13.4
2023-04-14T09:59:02.266Z,13.7
2023-04-14T10:00:01.336Z,13.7
2023-04-14T10:01:00.913Z,13.6
2023-04-14T10:02:01.552Z,13.4
2023-04-14T10:03:01.318Z,13.4
2023-04-14T10:04:01.737Z,13.5
2023-04-14T10:05:01.357Z,13.5
2023-04-14T10:06:01.007Z,13.6
2023-04-14T10:07:01.627Z,13.4
2023-04-14T10:08:01.230Z,13.4
2023-04-14T10:09:01.182Z,13.4
2023-04-14T10:10:01.081Z,13.4
2023-04-14T10:11:01.706Z,13.4
2023-04-14T10:12:01.348Z,13.3
2023-04-14T10:13:00.980Z,13.2
2023-04-14T10:14:01.551Z,13.2
2023-04-14T10:15:01.176Z,13.2
2023-04-14T10:16:01.807Z,13.4
2023-04-14T10:17:01.438Z,13.7
2023-04-14T10:18:01.026Z,13.7
2023-04-14T10:19:01.970Z,13.7
2023-04-14T10:20:00.940Z,13.9
2023-04-14T10:21:01.565Z,14.1
2023-04-14T10:22:01.155Z,14.1
2023-04-14T10:23:01.745Z,14.2
2023-04-14T10:24:01.336Z,14.3
2023-04-14T10:25:00.933Z,14.7
2023-04-14T10:26:01.527Z,14.7
2023-04-14T10:27:01.181Z,14.7
2023-04-14T10:28:01.752Z,14.6
2023-04-14T10:29:01.543Z,14.3
2023-04-14T10:30:01.042Z,14.2
2023-04-14T10:31:01.596Z,14.3
2023-04-14T10:32:01.264Z,14.5
2023-04-14T10:33:01.772Z,14.5
2023-04-14T10:34:01.412Z,14.4
2023-04-14T10:35:01.009Z,14.1
2023-04-14T10:36:01.579Z,14.2
2023-04-14T10:37:01.185Z,14.1
2023-04-14T10:38:01.754Z,14.2
2023-04-14T10:39:02.140Z,14.3
2023-04-14T10:40:01.100Z,14.2
2023-04-14T10:41:01.573Z,14.4
2023-04-14T10:42:01.190Z,14.6
2023-04-14T10:43:01.749Z,14.7
2023-04-14T10:44:01.338Z,14.8
2023-04-14T10:45:00.933Z,15.2
2023-04-14T10:46:01.561Z,15.3
2023-04-14T10:47:01.224Z,15.1
2023-04-14T10:48:01.856Z,15
2023-04-14T10:49:01.595Z,14.9
2023-04-14T10:50:01.008Z,14.8
2023-04-14T10:51:01.599Z,15.1
2023-04-14T10:52:01.232Z,15.4
2023-04-14T10:53:00.832Z,15.7
2023-04-14T10:54:01.363Z,15.8
2023-04-14T10:55:00.974Z,15.7
2023-04-14T10:56:01.541Z,15.6
2023-04-14T10:57:01.170Z,15.5
2023-04-14T10:58:01.737Z,15.3
2023-04-14T10:59:01.579Z,15
2023-04-14T11:00:00.977Z,15.2
2023-04-14T11:01:01.572Z,15.1
2023-04-14T11:02:01.314Z,15.3
2023-04-14T11:03:01.996Z,15.5
2023-04-14T11:04:01.948Z,15.6
2023-04-14T11:05:01.619Z,15.7
2023-04-14T11:06:01.209Z,16
2023-04-14T11:07:00.805Z,16
2023-04-14T11:08:02.946Z,15.6
2023-04-14T11:09:01.934Z,15.3
2023-04-14T11:10:01.684Z,15.2
2023-04-14T11:11:01.277Z,15.1
2023-04-14T11:12:00.862Z,14.8
2023-04-14T11:13:01.450Z,14.4
2023-04-14T11:14:01.060Z,14.2
2023-04-14T11:15:01.658Z,14.3
2023-04-14T11:16:01.291Z,14.6
2023-04-14T11:17:03.629Z,14.9
2023-04-14T11:18:01.426Z,15.2
2023-04-14T11:19:01.120Z,15.3
2023-04-14T11:20:01.614Z,15.3
2023-04-14T11:21:01.229Z,15.3
2023-04-14T11:22:00.793Z,15.1
2023-04-14T11:23:01.375Z,15.1
2023-04-14T11:24:00.973Z,15.2
2023-04-14T11:25:01.594Z,15.2
2023-04-14T11:26:01.223Z,14.9
2023-04-14T11:27:01.797Z,15.4
2023-04-14T11:28:01.396Z,15.4
2023-04-14T11:29:01.156Z,15.6
2023-04-14T11:30:01.592Z,15.5
2023-04-14T11:31:01.184Z,15.4
2023-04-14T11:32:01.848Z,15.3
2023-04-14T11:33:01.609Z,15.1
2023-04-14T11:34:01.042Z,15
2023-04-14T11:35:01.582Z,15
2023-04-14T11:36:01.172Z,15.1
2023-04-14T11:37:01.753Z,15.4
2023-04-14T11:38:01.356Z,15.6
2023-04-14T11:39:01.246Z,15.6
2023-04-14T11:40:01.534Z,15.6
2023-04-14T11:41:01.154Z,15.4
2023-04-14T11:42:01.718Z,15.3
2023-04-14T11:43:01.346Z,15.1
2023-04-14T11:44:00.951Z,15.2
2023-04-14T11:45:01.557Z,15.1
2023-04-14T11:46:01.185Z,15.3
2023-04-14T11:47:01.745Z,15.5
2023-04-14T11:48:01.399Z,15.7
2023-04-14T11:49:01.239Z,15.6
2023-04-14T11:50:01.118Z,15.5
2023-04-14T11:51:01.727Z,15.4
2023-04-14T11:52:01.337Z,15.1
2023-04-14T11:53:00.937Z,14.9
2023-04-14T11:54:01.579Z,14.8
2023-04-14T11:55:01.176Z,14.8
2023-04-14T11:56:01.785Z,14.9
2023-04-14T11:57:01.389Z,15
2023-04-14T11:58:01.013Z,15
2023-04-14T11:59:01.711Z,14.9
2023-04-14T12:00:01.398Z,14.9
2023-04-14T12:01:01.020Z,14.8
2023-04-14T12:02:01.630Z,14.8
2023-04-14T12:03:01.355Z,14.8
2023-04-14T12:04:00.880Z,14.9
2023-04-14T12:05:01.801Z,15
2023-04-14T12:06:01.168Z,15.1
2023-04-14T12:07:01.703Z,15.4
2023-04-14T12:08:01.331Z,15.4
2023-04-14T12:09:01.078Z,15.5
2023-04-14T12:10:01.735Z,15.7
2023-04-14T12:11:01.174Z,16.2
2023-04-14T12:12:01.743Z,16.7
2023-04-14T12:13:01.364Z,16.9
2023-04-14T12:14:00.953Z,17.2
2023-04-14T12:15:01.535Z,17
2023-04-14T12:16:01.153Z,16.6
2023-04-14T12:17:01.732Z,16.3
2023-04-14T12:18:01.356Z,16.1
2023-04-14T12:19:01.027Z,16.1
2023-04-14T12:20:01.538Z,16.2
2023-04-14T12:21:01.160Z,16.1
2023-04-14T12:22:01.846Z,16
2023-04-14T12:23:01.434Z,15.9
2023-04-14T12:24:00.960Z,15.9
2023-04-14T12:25:01.534Z,15.8
2023-04-14T12:26:01.188Z,15.8
2023-04-14T12:27:01.721Z,15.9
2023-04-14T12:28:01.338Z,15.8
2023-04-14T12:29:01.144Z,15.9
2023-04-14T12:30:01.481Z,16.1
2023-04-14T12:31:01.119Z,15.9
2023-04-14T12:32:01.679Z,15.7
2023-04-14T12:33:01.403Z,15.5
2023-04-14T12:34:00.894Z,15.5
2023-04-14T12:35:01.525Z,15.5
2023-04-14T12:36:01.138Z,15.5
2023-04-14T12:37:01.728Z,15.8
2023-04-14T12:38:01.374Z,15.9
2023-04-14T12:39:01.285Z,16.1
2023-04-14T12:40:01.598Z,16.3
2023-04-14T12:41:01.214Z,16.7
2023-04-14T12:42:01.818Z,16.5
2023-04-14T12:43:01.429Z,16.7
2023-04-14T12:44:01.029Z,16.8
2023-04-14T12:45:01.648Z,17.1
2023-04-14T12:46:01.234Z,17.1
2023-04-14T12:47:00.849Z,17
2023-04-14T12:48:01.436Z,17
2023-04-14T12:49:01.215Z,17
2023-04-14T12:50:01.693Z,17
2023-04-14T12:51:01.269Z,17
2023-04-14T12:52:00.874Z,16.9
2023-04-14T12:53:01.423Z,17.1
2023-04-14T12:54:01.119Z,16.9
2023-04-14T12:55:01.619Z,16.7
2023-04-14T12:56:01.212Z,16.3
2023-04-14T12:57:00.808Z,16.6
2023-04-14T12:58:01.403Z,16.5
2023-04-14T12:59:01.174Z,16.8
2023-04-14T13:00:01.579Z,16.7
2023-04-14T13:01:01.173Z,16.9
2023-04-14T13:02:01.776Z,17.1
2023-04-14T13:03:01.520Z,17.2
2023-04-14T13:04:01.118Z,17
2023-04-14T13:05:01.602Z,16.9
2023-04-14T13:06:01.214Z,16.9
2023-04-14T13:07:00.795Z,16.9
2023-04-14T13:08:01.400Z,16.8
2023-04-14T13:09:01.307Z,16.7
2023-04-14T13:10:01.118Z,16.4
2023-04-14T13:11:01.735Z,16.4
2023-04-14T13:12:01.348Z,16.5
2023-04-14T13:13:00.938Z,16.4
2023-04-14T13:14:01.545Z,16.1
2023-04-14T13:15:01.635Z,16.3
2023-04-14T13:16:12.575Z,16.1
2023-04-14T13:17:01.800Z,16.2
2023-04-14T13:18:01.454Z,16
2023-04-14T13:19:01.247Z,16.1
2023-04-14T13:20:01.637Z,16.1
2023-04-14T13:21:01.256Z,16.3
2023-04-14T13:22:00.839Z,16.3
2023-04-14T13:23:01.428Z,16.5
2023-04-14T13:24:01.037Z,16.7
2023-04-14T13:25:01.625Z,16.6
2023-04-14T13:26:01.244Z,16.4
2023-04-14T13:27:00.802Z,16.4
2023-04-14T13:28:01.389Z,16.6
2023-04-14T13:29:01.303Z,16.4
2023-04-14T13:30:01.604Z,16.4
2023-04-14T13:31:01.197Z,16.2
2023-04-14T13:32:01.885Z,16.2
2023-04-14T13:33:01.619Z,16.1
2023-04-14T13:34:01.023Z,16
2023-04-14T13:35:01.654Z,16.1
2023-04-14T13:36:01.270Z,16.1
2023-04-14T13:37:00.860Z,16.3
2023-04-14T13:38:01.442Z,16.4